Time;durP1;ratioP1;P1;durP2;ratioP2;P2;SDS_P1;SDS_P2;PMS_P1;PMS_P2;Temp;Humidity;BMP_temperature;BMP_pressure;BME280_temperature;BME280_humidity;BME280_pressure;Samples;Min_cycle;Max_cycle;Signal;HPM_P1;HPM_P2
2023/08/23 00:00:08;;;;;;;4.67;4.27;;;;;;;;;;6157053;23;20490;-60
2023/08/23 00:02:35;;;;;;;4.27;3.83;;;;;;;;;;6156559;23;20415;-60
2023/08/23 00:05:02;;;;;;;5.13;3.77;;;;;;;;;;6156587;23;20493;-60
2023/08/23 00:07:28;;;;;;;3.63;3.40;;;;;;;;;;6156473;23;20529;-60
2023/08/23 00:09:55;;;;;;;4.53;3.50;;;;;;;;;;6156526;23;20482;-60
2023/08/23 00:12:22;;;;;;;4.77;4.13;;;;;;;;;;6156519;23;20814;-60
2023/08/23 00:14:51;;;;;;;6.53;4.07;;;;;;;;;;6156432;23;20443;-60
2023/08/23 00:17:18;;;;;;;3.57;3.30;;;;;;;;;;6156463;23;20803;-60
2023/08/23 00:19:46;;;;;;;4.50;3.93;;;;;;;;;;6156409;23;20487;-60
2023/08/23 00:22:13;;;;;;;3.57;3.17;;;;;;;;;;6156467;23;20430;-60
2023/08/23 00:24:40;;;;;;;7.43;4.30;;;;;;;;;;6156386;23;20493;-60
2023/08/23 00:27:06;;;;;;;4.60;4.20;;;;;;;;;;6156298;23;20517;-60
2023/08/23 00:29:33;;;;;;;3.97;3.67;;;;;;;;;;6156007;23;20906;-60
2023/08/23 00:32:02;;;;;;;4.23;3.83;;;;;;;;;;6156322;23;20497;-60
2023/08/23 00:34:28;;;;;;;5.00;4.50;;;;;;;;;;6156288;23;20411;-60
2023/08/23 00:36:55;;;;;;;3.80;3.50;;;;;;;;;;6156874;23;20749;-60
2023/08/23 00:39:22;;;;;;;4.53;4.17;;;;;;;;;;6156225;23;20494;-60
2023/08/23 00:41:49;;;;;;;4.20;3.80;;;;;;;;;;6155922;23;20499;-60
2023/08/23 00:44:16;;;;;;;4.10;3.80;;;;;;;;;;6156138;23;20792;-60
2023/08/23 00:46:43;;;;;;;4.50;4.20;;;;;;;;;;6156082;23;20439;-60
2023/08/23 00:49:11;;;;;;;4.17;3.80;;;;;;;;;;6156018;23;20434;-60
2023/08/23 00:51:38;;;;;;;4.90;4.57;;;;;;;;;;6156187;23;20934;-60
2023/08/23 00:54:06;;;;;;;4.37;4.07;;;;;;;;;;6156356;23;20439;-60
2023/08/23 00:56:34;;;;;;;3.57;3.27;;;;;;;;;;6156107;23;20462;-59
2023/08/23 00:59:01;;;;;;;3.80;3.57;;;;;;;;;;6156072;23;20441;-60
2023/08/23 01:01:28;;;;;;;6.03;3.90;;;;;;;;;;6156096;23;20493;-60
2023/08/23 01:03:57;;;;;;;4.87;3.60;;;;;;;;;;6155990;23;20426;-60
2023/08/23 01:06:47;;;;;;;4.60;3.77;;;;;;;;;;6155958;23;20519;-60
2023/08/23 01:09:19;;;;;;;4.07;3.77;;;;;;;;;;6156039;23;20399;-60
2023/08/23 01:11:47;;;;;;;3.87;3.53;;;;;;;;;;6156396;23;20478;-60
2023/08/23 01:14:17;;;;;;;8.50;4.50;;;;;;;;;;6155932;23;20410;-60
2023/08/23 01:16:48;;;;;;;4.30;4.00;;;;;;;;;;6155981;23;20493;-59
2023/08/23 01:19:23;;;;;;;4.27;3.87;;;;;;;;;;6156038;23;20395;-59
2023/08/23 01:21:54;;;;;;;3.73;3.50;;;;;;;;;;6155651;23;20867;-60
2023/08/23 01:24:22;;;;;;;4.23;3.60;;;;;;;;;;6156338;23;20489;-60
2023/08/23 01:26:50;;;;;;;5.90;3.77;;;;;;;;;;6155869;23;20442;-60
2023/08/23 01:29:16;;;;;;;3.83;3.53;;;;;;;;;;6155884;23;20498;-60
2023/08/23 01:31:44;;;;;;;4.57;4.03;;;;;;;;;;6155579;23;20442;-59
2023/08/23 01:34:15;;;;;;;4.40;4.10;;;;;;;;;;6155889;23;20998;-60
2023/08/23 01:36:42;;;;;;;3.80;3.50;;;;;;;;;;6156023;23;20490;-60
2023/08/23 01:39:10;;;;;;;5.13;4.10;;;;;;;;;;6155872;23;20413;-59
2023/08/23 01:41:38;;;;;;;3.80;3.50;;;;;;;;;;6155872;23;20442;-60
2023/08/23 01:44:05;;;;;;;3.50;3.20;;;;;;;;;;6155775;23;20439;-60
2023/08/23 01:46:32;;;;;;;4.57;4.20;;;;;;;;;;6155657;23;20441;-59
2023/08/23 01:48:59;;;;;;;4.03;3.70;;;;;;;;;;6155612;23;20490;-60
2023/08/23 01:51:26;;;;;;;3.53;3.33;;;;;;;;;;6155774;23;20414;-60
2023/08/23 01:53:53;;;;;;;3.20;2.97;;;;;;;;;;6157360;23;20489;-60
2023/08/23 01:56:20;;;;;;;4.33;3.83;;;;;;;;;;6158101;23;20490;-60
2023/08/23 01:58:48;;;;;;;4.63;4.33;;;;;;;;;;6157759;23;20406;-60
2023/08/23 02:01:15;;;;;;;4.47;4.17;;;;;;;;;;6158106;23;20498;-60
2023/08/23 02:03:42;;;;;;;5.83;3.50;;;;;;;;;;6157686;23;20457;-59
2023/08/23 02:06:09;;;;;;;3.73;3.50;;;;;;;;;;6157723;23;20493;-60
2023/08/23 02:08:36;;;;;;;3.30;3.00;;;;;;;;;;6157265;23;20521;-60
2023/08/23 02:11:03;;;;;;;4.03;3.23;;;;;;;;;;6157591;23;20434;-60
2023/08/23 02:13:31;;;;;;;4.30;3.93;;;;;;;;;;6157168;23;20954;-60
2023/08/23 02:15:59;;;;;;;3.60;3.40;;;;;;;;;;6157902;23;20497;-60
2023/08/23 02:18:26;;;;;;;3.70;3.40;;;;;;;;;;6157566;23;20449;-60
2023/08/23 02:20:57;;;;;;;6.60;3.53;;;;;;;;;;6157447;23;20411;-60
2023/08/23 02:23:24;;;;;;;4.50;3.83;;;;;;;;;;6157493;23;20417;-60
2023/08/23 02:25:51;;;;;;;5.13;4.73;;;;;;;;;;6157780;23;20407;-60
2023/08/23 02:28:17;;;;;;;4.40;3.90;;;;;;;;;;6157416;23;20829;-59
2023/08/23 02:30:44;;;;;;;3.80;3.60;;;;;;;;;;6157094;23;20406;-60
2023/08/23 02:33:13;;;;;;;4.30;3.23;;;;;;;;;;6157381;23;20449;-60
2023/08/23 02:35:41;;;;;;;4.13;3.83;;;;;;;;;;6157388;23;20406;-60
2023/08/23 02:38:09;;;;;;;3.40;3.10;;;;;;;;;;6157389;23;20407;-59
2023/08/23 02:40:36;;;;;;;3.80;3.40;;;;;;;;;;6157717;23;20433;-60
2023/08/23 02:43:02;;;;;;;3.93;3.57;;;;;;;;;;6157223;23;20402;-60
2023/08/23 02:45:29;;;;;;;4.00;3.60;;;;;;;;;;6157652;23;20494;-60
2023/08/23 02:47:56;;;;;;;5.00;4.40;;;;;;;;;;6157178;23;20828;-60
2023/08/23 02:50:24;;;;;;;6.20;5.50;;;;;;;;;;6156851;23;20542;-60
2023/08/23 02:52:51;;;;;;;3.43;3.23;;;;;;;;;;6157469;23;20494;-60
2023/08/23 02:55:18;;;;;;;6.40;4.07;;;;;;;;;;6157261;23;20489;-60
2023/08/23 02:57:45;;;;;;;4.60;4.30;;;;;;;;;;6156761;23;20489;-60
2023/08/23 03:00:13;;;;;;;3.90;3.60;;;;;;;;;;6157169;23;20493;-60
2023/08/23 03:02:40;;;;;;;3.97;3.60;;;;;;;;;;6157469;23;20490;-59
2023/08/23 03:05:07;;;;;;;3.63;3.40;;;;;;;;;;6156696;23;20869;-60
2023/08/23 03:07:36;;;;;;;3.97;3.60;;;;;;;;;;6157019;23;20493;-60
2023/08/23 03:10:03;;;;;;;4.10;3.70;;;;;;;;;;6157375;23;20802;-60
2023/08/23 03:12:29;;;;;;;3.83;3.53;;;;;;;;;;6156989;23;20933;-60
2023/08/23 03:14:56;;;;;;;6.90;3.97;;;;;;;;;;6156988;23;20497;-60
2023/08/23 03:17:23;;;;;;;4.40;4.00;;;;;;;;;;6156992;23;20457;-60
2023/08/23 03:19:50;;;;;;;3.70;3.50;;;;;;;;;;6157011;23;20438;-59
2023/08/23 03:22:17;;;;;;;3.90;3.70;;;;;;;;;;6157305;23;20490;-60
2023/08/23 03:24:45;;;;;;;5.23;3.50;;;;;;;;;;6156877;23;20497;-60
2023/08/23 03:27:13;;;;;;;4.47;4.07;;;;;;;;;;6156460;23;20942;-59
2023/08/23 03:29:40;;;;;;;4.47;4.17;;;;;;;;;;6156908;23;20498;-59
2023/08/23 03:32:07;;;;;;;4.40;4.10;;;;;;;;;;6156871;23;20510;-60
2023/08/23 03:34:33;;;;;;;6.30;4.03;;;;;;;;;;6156828;23;20495;-59
2023/08/23 03:37:00;;;;;;;5.53;3.80;;;;;;;;;;6156915;23;20455;-60
2023/08/23 03:39:27;;;;;;;4.97;4.23;;;;;;;;;;6156719;23;20418;-60
2023/08/23 03:41:55;;;;;;;7.40;4.40;;;;;;;;;;6156785;23;20525;-60
2023/08/23 03:44:22;;;;;;;3.73;2.80;;;;;;;;;;6156965;23;20489;-60
2023/08/23 03:46:49;;;;;;;4.00;3.60;;;;;;;;;;6156730;23;20497;-59
2023/08/23 03:49:16;;;;;;;4.80;3.90;;;;;;;;;;6156528;23;20551;-60
2023/08/23 03:51:43;;;;;;;4.00;3.57;;;;;;;;;;6156656;23;20778;-60
2023/08/23 03:54:10;;;;;;;6.33;3.63;;;;;;;;;;6156682;23;20796;-59
2023/08/23 03:56:37;;;;;;;6.23;3.43;;;;;;;;;;6156681;23;20486;-60
2023/08/23 03:59:05;;;;;;;5.97;3.90;;;;;;;;;;6156588;23;20490;-60
2023/08/23 04:01:32;;;;;;;6.50;3.93;;;;;;;;;;6156540;23;20430;-60
2023/08/23 04:03:59;;;;;;;7.73;4.03;;;;;;;;;;6156479;23;20797;-59
2023/08/23 04:06:26;;;;;;;4.10;3.57;;;;;;;;;;6156357;23;20461;-60
2023/08/23 04:08:53;;;;;;;4.07;3.57;;;;;;;;;;6155950;23;20530;-60
2023/08/23 04:11:20;;;;;;;4.60;3.67;;;;;;;;;;6156468;23;20494;-60
2023/08/23 04:13:46;;;;;;;4.50;4.20;;;;;;;;;;6156366;23;20489;-59
2023/08/23 04:16:15;;;;;;;3.80;3.50;;;;;;;;;;6156682;23;20523;-59
2023/08/23 04:18:42;;;;;;;4.60;4.23;;;;;;;;;;6156324;23;20411;-60
2023/08/23 04:21:10;;;;;;;3.80;3.60;;;;;;;;;;6155915;23;20969;-60
2023/08/23 04:23:37;;;;;;;4.13;3.73;;;;;;;;;;6156167;23;20776;-60
2023/08/23 04:26:04;;;;;;;4.30;3.50;;;;;;;;;;6156176;23;20435;-59
2023/08/23 04:28:31;;;;;;;4.60;4.20;;;;;;;;;;6156215;23;20470;-59
2023/08/23 04:31:01;;;;;;;4.33;4.00;;;;;;;;;;6156243;23;20414;-59
2023/08/23 04:33:29;;;;;;;3.80;3.50;;;;;;;;;;6155748;23;20406;-60
2023/08/23 04:35:56;;;;;;;4.20;3.90;;;;;;;;;;6156190;23;20407;-60
2023/08/23 04:38:22;;;;;;;4.83;3.80;;;;;;;;;;6156132;23;20494;-59
2023/08/23 04:40:49;;;;;;;4.63;4.10;;;;;;;;;;6155809;23;20446;-60
2023/08/23 04:43:16;;;;;;;4.80;3.47;;;;;;;;;;6156187;23;20403;-60
2023/08/23 04:45:43;;;;;;;3.63;3.27;;;;;;;;;;6156132;23;20541;-60
2023/08/23 04:48:11;;;;;;;3.87;3.57;;;;;;;;;;6155932;23;20470;-61
2023/08/23 04:50:40;;;;;;;3.80;3.60;;;;;;;;;;6155784;23;20438;-60
2023/08/23 04:53:07;;;;;;;5.10;4.10;;;;;;;;;;6155979;23;20489;-60
2023/08/23 04:55:34;;;;;;;4.10;3.80;;;;;;;;;;6155916;23;20490;-60
2023/08/23 04:58:01;;;;;;;5.10;4.00;;;;;;;;;;6156305;23;20498;-60
2023/08/23 05:00:27;;;;;;;4.27;3.97;;;;;;;;;;6155962;23;20506;-60
2023/08/23 05:02:54;;;;;;;3.60;3.40;;;;;;;;;;6155914;23;20768;-60
2023/08/23 05:05:21;;;;;;;4.13;3.67;;;;;;;;;;6155899;23;20458;-60
2023/08/23 05:07:50;;;;;;;3.67;3.37;;;;;;;;;;6155841;23;20470;-60
2023/08/23 05:10:17;;;;;;;3.80;3.50;;;;;;;;;;6155455;23;20418;-60
2023/08/23 05:12:44;;;;;;;7.80;3.93;;;;;;;;;;6155777;23;20498;-60
2023/08/23 05:15:11;;;;;;;3.30;3.10;;;;;;;;;;6155888;23;20791;-60
2023/08/23 05:17:38;;;;;;;4.17;3.50;;;;;;;;;;6155904;23;20489;-60
2023/08/23 05:20:05;;;;;;;4.07;3.87;;;;;;;;;;6155889;23;20798;-60
2023/08/23 05:22:32;;;;;;;3.17;2.97;;;;;;;;;;6155806;23;20929;-60
2023/08/23 05:25:01;;;;;;;4.30;4.00;;;;;;;;;;6155744;23;20439;-60
2023/08/23 05:27:28;;;;;;;3.93;3.53;;;;;;;;;;6155477;23;20465;-60
2023/08/23 05:29:55;;;;;;;5.60;4.10;;;;;;;;;;6156101;23;20494;-60
2023/08/23 05:32:22;;;;;;;7.70;3.73;;;;;;;;;;6155806;23;20934;-60
2023/08/23 05:34:49;;;;;;;5.43;4.33;;;;;;;;;;6155705;23;20787;-60
2023/08/23 05:37:16;;;;;;;6.67;4.00;;;;;;;;;;6155811;23;20490;-60
2023/08/23 05:39:43;;;;;;;4.67;4.37;;;;;;;;;;6155380;23;20414;-60
2023/08/23 05:42:11;;;;;;;5.17;4.00;;;;;;;;;;6155756;23;20457;-60
2023/08/23 05:44:38;;;;;;;4.50;4.20;;;;;;;;;;6155630;23;20498;-60
2023/08/23 05:47:05;;;;;;;4.33;4.13;;;;;;;;;;6155801;23;20439;-60
2023/08/23 05:49:32;;;;;;;4.97;4.50;;;;;;;;;;6155153;23;21017;-60
2023/08/23 05:51:59;;;;;;;6.50;4.87;;;;;;;;;;6156130;23;20482;-60
2023/08/23 05:54:26;;;;;;;4.47;4.17;;;;;;;;;;6155556;23;20438;-60
2023/08/23 05:56:53;;;;;;;5.30;4.80;;;;;;;;;;6155787;23;20720;-60
2023/08/23 05:59:21;;;;;;;7.90;4.30;;;;;;;;;;6155303;23;20438;-60
2023/08/23 06:01:48;;;;;;;5.13;4.60;;;;;;;;;;6155767;23;20497;-60
2023/08/23 06:04:15;;;;;;;4.30;4.00;;;;;;;;;;6155561;23;20748;-60
2023/08/23 06:06:42;;;;;;;4.87;4.47;;;;;;;;;;6155532;23;20502;-60
2023/08/23 06:09:09;;;;;;;5.97;4.87;;;;;;;;;;6155381;23;20523;-60
2023/08/23 06:11:36;;;;;;;5.07;4.53;;;;;;;;;;6155578;23;20410;-60
2023/08/23 06:14:16;;;;;;;5.60;4.33;;;;;;;;;;6155515;23;20407;-61
2023/08/23 06:16:44;;;;;;;5.43;4.87;;;;;;;;;;6155639;23;20906;-60
2023/08/23 06:19:11;;;;;;;4.53;4.23;;;;;;;;;;6155603;23;20498;-60
2023/08/23 06:21:38;;;;;;;4.80;4.50;;;;;;;;;;6155289;23;20895;-60
2023/08/23 06:24:05;;;;;;;5.20;4.03;;;;;;;;;;6155331;23;20477;-60
2023/08/23 06:26:32;;;;;;;5.50;4.60;;;;;;;;;;6154815;23;20796;-60
2023/08/23 06:28:59;;;;;;;5.30;4.80;;;;;;;;;;6155137;23;20443;-60
2023/08/23 06:31:26;;;;;;;4.33;4.03;;;;;;;;;;6154900;23;20414;-60
2023/08/23 06:33:54;;;;;;;4.77;4.30;;;;;;;;;;6155379;23;20494;-60
2023/08/23 06:36:21;;;;;;;5.50;4.07;;;;;;;;;;6155241;23;20441;-61
2023/08/23 06:38:48;;;;;;;4.03;3.83;;;;;;;;;;6155242;23;20494;-61
2023/08/23 06:41:15;;;;;;;4.90;4.43;;;;;;;;;;6156592;23;20775;-60
2023/08/23 06:43:43;;;;;;;3.60;3.40;;;;;;;;;;6156797;23;20442;-60
2023/08/23 06:46:10;;;;;;;4.33;3.93;;;;;;;;;;6156460;23;20446;-60
2023/08/23 06:48:37;;;;;;;4.10;3.80;;;;;;;;;;6156681;23;20517;-60
2023/08/23 06:51:05;;;;;;;5.70;3.80;;;;;;;;;;6156311;23;20509;-60
2023/08/23 06:53:33;;;;;;;3.33;3.13;;;;;;;;;;6156712;23;20458;-61
2023/08/23 06:56:00;;;;;;;6.90;4.53;;;;;;;;;;6156798;23;20446;-60
2023/08/23 06:58:27;;;;;;;3.73;3.43;;;;;;;;;;6156543;23;20906;-60
2023/08/23 07:00:56;;;;;;;3.87;3.50;;;;;;;;;;6156580;23;20486;-60
2023/08/23 07:03:23;;;;;;;4.77;4.03;;;;;;;;;;6156473;23;20411;-61
2023/08/23 07:05:50;;;;;;;4.27;3.97;;;;;;;;;;6156019;23;20494;-60
2023/08/23 07:08:18;;;;;;;4.17;3.33;;;;;;;;;;6156426;23;20477;-61
2023/08/23 07:10:45;;;;;;;4.53;4.13;;;;;;;;;;6156550;23;20502;-62
2023/08/23 07:13:12;;;;;;;4.57;3.40;;;;;;;;;;6156293;23;20486;-60
2023/08/23 07:15:40;;;;;;;4.47;4.17;;;;;;;;;;6156926;23;20975;-59
2023/08/23 07:18:08;;;;;;;3.50;3.20;;;;;;;;;;6156599;23;20790;-59
2023/08/23 07:20:35;;;;;;;3.97;3.57;;;;;;;;;;6154009;23;20411;-60
2023/08/23 07:23:03;;;;;;;3.73;3.43;;;;;;;;;;6155932;23;20432;-62
2023/08/23 07:25:32;;;;;;;3.27;3.07;;;;;;;;;;6156514;23;20407;-62
2023/08/23 07:27:58;;;;;;;5.10;3.97;;;;;;;;;;6156389;23;20491;-62
2023/08/23 07:30:25;;;;;;;4.00;3.60;;;;;;;;;;6156282;23;20418;-61
2023/08/23 07:32:52;;;;;;;4.33;3.47;;;;;;;;;;6156354;23;20950;-62
2023/08/23 07:35:19;;;;;;;3.63;3.20;;;;;;;;;;6156371;23;20434;-60
2023/08/23 07:37:46;;;;;;;7.13;2.70;;;;;;;;;;6156259;23;20481;-60
2023/08/23 07:40:13;;;;;;;4.80;3.47;;;;;;;;;;6156897;23;20774;-61
2023/08/23 07:42:42;;;;;;;4.70;3.13;;;;;;;;;;6156310;23;20489;-61
2023/08/23 07:45:09;;;;;;;3.33;3.13;;;;;;;;;;6155896;23;20407;-62
2023/08/23 07:47:36;;;;;;;5.23;3.33;;;;;;;;;;6156232;23;20403;-61
2023/08/23 07:50:04;;;;;;;3.00;2.80;;;;;;;;;;6155666;23;20833;-61
2023/08/23 07:52:31;;;;;;;3.13;2.83;;;;;;;;;;6156159;23;20726;-61
2023/08/23 07:54:58;;;;;;;2.60;2.40;;;;;;;;;;6155572;23;20410;-61
2023/08/23 07:57:25;;;;;;;3.10;2.90;;;;;;;;;;6155954;23;20415;-60
2023/08/23 07:59:55;;;;;;;2.57;2.40;;;;;;;;;;6155701;23;20490;-60
2023/08/23 08:02:22;;;;;;;3.50;2.57;;;;;;;;;;6156193;23;20458;-60
2023/08/23 08:04:49;;;;;;;3.50;2.30;;;;;;;;;;6155746;23;20433;-67
2023/08/23 08:07:16;;;;;;;3.53;2.87;;;;;;;;;;6156174;23;20929;-60
2023/08/23 08:09:43;;;;;;;4.07;2.70;;;;;;;;;;6155874;23;20442;-64
2023/08/23 08:12:10;;;;;;;3.20;2.87;;;;;;;;;;6155843;23;20503;-61
2023/08/23 08:14:36;;;;;;;8.03;3.70;;;;;;;;;;6155886;23;20493;-63
2023/08/23 08:17:05;;;;;;;4.57;2.40;;;;;;;;;;6155858;23;20491;-60
2023/08/23 08:19:32;;;;;;;3.87;2.63;;;;;;;;;;6155864;23;20769;-60
2023/08/23 08:21:58;;;;;;;2.63;2.47;;;;;;;;;;6155784;23;20485;-63
2023/08/23 08:24:26;;;;;;;3.90;2.77;;;;;;;;;;6155716;23;20493;-64
2023/08/23 08:26:53;;;;;;;2.73;2.53;;;;;;;;;;6155596;23;20494;-64
2023/08/23 08:29:20;;;;;;;4.87;2.60;;;;;;;;;;6155866;23;20430;-64
2023/08/23 08:31:50;;;;;;;5.57;2.50;;;;;;;;;;6154987;23;20497;-62
2023/08/23 08:34:19;;;;;;;2.97;2.67;;;;;;;;;;6155785;23;20763;-63
2023/08/23 08:36:46;;;;;;;2.80;2.10;;;;;;;;;;6155446;23;20498;-63
2023/08/23 08:39:13;;;;;;;2.27;2.00;;;;;;;;;;6155608;23;20493;-62
2023/08/23 08:41:44;;;;;;;4.10;1.83;;;;;;;;;;6155297;23;20946;-62
2023/08/23 08:44:12;;;;;;;4.00;2.77;;;;;;;;;;6155614;23;20395;-60
2023/08/23 08:46:41;;;;;;;2.40;2.20;;;;;;;;;;6155498;23;20410;-62
2023/08/23 08:49:08;;;;;;;2.17;1.80;;;;;;;;;;6155224;23;20530;-62
2023/08/23 08:51:37;;;;;;;2.70;2.50;;;;;;;;;;6155512;23;20422;-60
2023/08/23 08:54:06;;;;;;;3.10;2.80;;;;;;;;;;6155776;23;20422;-61
2023/08/23 08:56:33;;;;;;;2.70;2.17;;;;;;;;;;6155079;23;20825;-61
2023/08/23 08:59:00;;;;;;;7.10;2.47;;;;;;;;;;6156191;23;20485;-61
2023/08/23 09:01:30;;;;;;;3.47;3.10;;;;;;;;;;6155513;23;20490;-61
2023/08/23 09:03:58;;;;;;;4.13;2.70;;;;;;;;;;6155132;23;20391;-63
2023/08/23 09:06:24;;;;;;;4.07;2.50;;;;;;;;;;6155520;23;20851;-60
2023/08/23 09:08:53;;;;;;;3.93;3.40;;;;;;;;;;6155248;23;20517;-62
2023/08/23 09:11:20;;;;;;;3.03;2.83;;;;;;;;;;6155306;23;20805;-63
2023/08/23 09:13:47;;;;;;;3.43;2.63;;;;;;;;;;6155190;23;20723;-60
2023/08/23 09:16:14;;;;;;;3.60;3.10;;;;;;;;;;6155287;23;20498;-62
2023/08/23 09:18:44;;;;;;;5.63;3.37;;;;;;;;;;6155059;23;20949;-61
2023/08/23 09:21:12;;;;;;;4.53;2.60;;;;;;;;;;6155247;23;20495;-61
2023/08/23 09:23:38;;;;;;;2.97;2.70;;;;;;;;;;6155410;23;20538;-62
2023/08/23 09:26:08;;;;;;;4.80;2.57;;;;;;;;;;6155312;23;20493;-60
2023/08/23 09:28:35;;;;;;;2.57;2.37;;;;;;;;;;6155254;23;20969;-61
2023/08/23 09:31:02;;;;;;;3.20;3.00;;;;;;;;;;6155221;23;20525;-60
2023/08/23 09:33:29;;;;;;;3.20;2.90;;;;;;;;;;6155068;23;20411;-61
2023/08/23 09:35:58;;;;;;;5.23;3.70;;;;;;;;;;6155004;23;20407;-59
2023/08/23 09:38:26;;;;;;;2.77;2.50;;;;;;;;;;6155142;23;20481;-60
2023/08/23 09:40:53;;;;;;;4.17;3.00;;;;;;;;;;6155184;23;20457;-60
2023/08/23 09:43:22;;;;;;;3.00;2.40;;;;;;;;;;6155302;23;20776;-61
2023/08/23 09:45:49;;;;;;;2.80;2.50;;;;;;;;;;6155199;23;20486;-61
2023/08/23 09:48:17;;;;;;;2.30;2.20;;;;;;;;;;6154987;23;20438;-61
2023/08/23 09:50:45;;;;;;;4.17;2.97;;;;;;;;;;6154552;23;20482;-61
2023/08/23 09:53:13;;;;;;;4.37;2.80;;;;;;;;;;6154769;23;20921;-61
2023/08/23 09:55:40;;;;;;;2.03;1.93;;;;;;;;;;6155184;23;20497;-60
2023/08/23 09:58:07;;;;;;;3.13;2.53;;;;;;;;;;6155070;23;20486;-61
2023/08/23 10:00:36;;;;;;;2.93;2.63;;;;;;;;;;6154798;23;20498;-61
2023/08/23 10:03:03;;;;;;;3.03;2.53;;;;;;;;;;6155132;23;20491;-62
2023/08/23 10:05:30;;;;;;;4.90;2.30;;;;;;;;;;6155056;23;20485;-60
2023/08/23 10:07:58;;;;;;;2.90;2.70;;;;;;;;;;6155357;23;20461;-62
2023/08/23 10:10:25;;;;;;;5.30;2.30;;;;;;;;;;6154568;23;20519;-61
2023/08/23 10:12:53;;;;;;;2.83;2.63;;;;;;;;;;6155330;23;20489;-60
2023/08/23 10:15:25;;;;;;;3.67;2.40;;;;;;;;;;6156979;23;20429;-62
2023/08/23 10:17:53;;;;;;;3.73;2.30;;;;;;;;;;6156904;23;20482;-59
2023/08/23 10:20:23;;;;;;;2.60;1.90;;;;;;;;;;6156775;23;20414;-59
2023/08/23 10:22:53;;;;;;;3.33;2.37;;;;;;;;;;6156845;23;20450;-59
2023/08/23 10:25:22;;;;;;;4.77;2.90;;;;;;;;;;6156092;23;20407;-59
2023/08/23 10:27:49;;;;;;;3.37;2.47;;;;;;;;;;6156716;23;20461;-59
2023/08/23 10:30:18;;;;;;;2.13;2.03;;;;;;;;;;6157006;23;20442;-59
2023/08/23 10:32:45;;;;;;;4.80;2.23;;;;;;;;;;6156939;23;20407;-61
2023/08/23 10:35:28;;;;;;;4.00;2.50;;;;;;;;;;6157148;23;20414;-61
2023/08/23 10:37:55;;;;;;;2.50;2.10;;;;;;;;;;6156964;23;20395;-61
2023/08/23 10:40:22;;;;;;;3.63;2.20;;;;;;;;;;6156375;23;20697;-60
2023/08/23 10:42:50;;;;;;;2.20;2.00;;;;;;;;;;6156872;23;20724;-61
2023/08/23 10:45:17;;;;;;;2.93;1.90;;;;;;;;;;6156560;23;20759;-60
2023/08/23 10:47:44;;;;;;;1.90;1.80;;;;;;;;;;6156486;23;20430;-60
2023/08/23 10:50:12;;;;;;;2.73;2.00;;;;;;;;;;6156521;23;20484;-60
2023/08/23 10:52:40;;;;;;;2.83;2.00;;;;;;;;;;6156845;23;20407;-60
2023/08/23 10:55:07;;;;;;;6.67;2.10;;;;;;;;;;6156903;23;20411;-60
2023/08/23 10:57:34;;;;;;;3.47;2.17;;;;;;;;;;6156975;23;20439;-60
2023/08/23 11:00:02;;;;;;;4.67;2.13;;;;;;;;;;6156898;23;20494;-59
2023/08/23 11:02:31;;;;;;;2.10;1.63;;;;;;;;;;6156882;23;20414;-60
2023/08/23 11:04:59;;;;;;;2.33;1.70;;;;;;;;;;6156804;23;20426;-60
2023/08/23 11:07:26;;;;;;;1.77;1.67;;;;;;;;;;6156832;23;20448;-60
2023/08/23 11:09:55;;;;;;;4.73;1.70;;;;;;;;;;6156619;23;20430;-61
2023/08/23 11:12:23;;;;;;;2.70;1.90;;;;;;;;;;6156631;23;20407;-59
2023/08/23 11:14:50;;;;;;;5.63;2.43;;;;;;;;;;6156430;23;20407;-60
2023/08/23 11:17:17;;;;;;;2.03;1.73;;;;;;;;;;6156150;23;20407;-60
2023/08/23 11:19:44;;;;;;;1.60;1.50;;;;;;;;;;6156220;23;20414;-60
2023/08/23 11:22:11;;;;;;;1.83;1.73;;;;;;;;;;6156497;23;20415;-61
2023/08/23 11:24:38;;;;;;;1.57;1.47;;;;;;;;;;6156167;23;20830;-61
2023/08/23 11:27:11;;;;;;;3.93;1.50;;;;;;;;;;6155976;23;20914;-61
2023/08/23 11:29:38;;;;;;;2.00;1.80;;;;;;;;;;6156445;23;20514;-61
2023/08/23 11:32:07;;;;;;;1.60;1.50;;;;;;;;;;6156433;23;20891;-61
2023/08/23 11:34:34;;;;;;;3.57;1.70;;;;;;;;;;6156551;23;20418;-61
2023/08/23 11:37:01;;;;;;;4.20;1.67;;;;;;;;;;6156611;23;20407;-62
2023/08/23 11:39:28;;;;;;;3.37;1.80;;;;;;;;;;6156549;23;20407;-61
2023/08/23 11:41:55;;;;;;;1.70;1.40;;;;;;;;;;6156598;23;20494;-61
2023/08/23 11:44:24;;;;;;;2.23;1.37;;;;;;;;;;6156354;23;20493;-60
2023/08/23 11:46:51;;;;;;;1.53;1.30;;;;;;;;;;6156389;23;20410;-60
2023/08/23 11:49:19;;;;;;;3.10;1.83;;;;;;;;;;6156566;23;20518;-62
2023/08/23 11:51:49;;;;;;;2.93;1.30;;;;;;;;;;6155992;23;20667;-60
2023/08/23 11:54:16;;;;;;;1.50;1.37;;;;;;;;;;6156304;23;20391;-60
2023/08/23 11:56:44;;;;;;;2.13;1.43;;;;;;;;;;6156283;23;20409;-61
2023/08/23 11:59:11;;;;;;;3.33;1.20;;;;;;;;;;6156428;23;20403;-61
2023/08/23 12:01:39;;;;;;;3.60;2.13;;;;;;;;;;6156478;23;20407;-60
2023/08/23 12:04:07;;;;;;;2.50;1.53;;;;;;;;;;6156145;23;20403;-61
2023/08/23 12:06:34;;;;;;;2.90;1.10;;;;;;;;;;6156495;23;20913;-60
2023/08/23 12:09:03;;;;;;;1.63;1.00;;;;;;;;;;6156253;23;20486;-60
2023/08/23 12:11:30;;;;;;;1.20;1.10;;;;;;;;;;6156257;23;20442;-62
2023/08/23 12:13:58;;;;;;;4.40;1.43;;;;;;;;;;6156287;23;20490;-59
2023/08/23 12:16:25;;;;;;;1.97;1.10;;;;;;;;;;6156082;23;20406;-61
2023/08/23 12:18:53;;;;;;;1.40;1.30;;;;;;;;;;6156190;23;20490;-60
2023/08/23 12:21:20;;;;;;;2.33;1.53;;;;;;;;;;6156245;23;20438;-61
2023/08/23 12:23:47;;;;;;;5.60;1.60;;;;;;;;;;6156090;23;20589;-62
2023/08/23 12:26:14;;;;;;;1.80;1.10;;;;;;;;;;6156487;23;20785;-62
2023/08/23 12:28:41;;;;;;;1.30;1.20;;;;;;;;;;6156048;23;20415;-62
2023/08/23 12:31:08;;;;;;;3.70;1.57;;;;;;;;;;6155925;23;21021;-62
2023/08/23 12:33:35;;;;;;;3.60;1.60;;;;;;;;;;6155997;23;20498;-59
2023/08/23 12:36:03;;;;;;;1.37;1.10;;;;;;;;;;6155939;23;20482;-59
2023/08/23 12:38:30;;;;;;;1.47;1.20;;;;;;;;;;6155596;23;20434;-61
2023/08/23 12:40:57;;;;;;;1.33;1.10;;;;;;;;;;6155925;23;20788;-61
2023/08/23 12:43:24;;;;;;;17.60;5.97;;;;;;;;;;6156008;23;20510;-61
2023/08/23 12:45:51;;;;;;;3.67;1.40;;;;;;;;;;6156081;23;20418;-60
2023/08/23 12:48:18;;;;;;;1.73;1.30;;;;;;;;;;6155831;23;20490;-61
2023/08/23 12:50:45;;;;;;;2.37;1.70;;;;;;;;;;6155644;23;20474;-61
2023/08/23 12:53:13;;;;;;;3.10;1.50;;;;;;;;;;6155863;23;20482;-61
2023/08/23 12:55:40;;;;;;;1.57;1.30;;;;;;;;;;6155504;23;20937;-61
2023/08/23 12:58:07;;;;;;;4.30;1.40;;;;;;;;;;6155912;23;20407;-62
2023/08/23 13:00:34;;;;;;;2.30;1.70;;;;;;;;;;6155915;23;20439;-61
2023/08/23 13:03:02;;;;;;;1.60;1.50;;;;;;;;;;6155882;23;20410;-61
2023/08/23 13:05:29;;;;;;;1.73;1.53;;;;;;;;;;6155907;23;20403;-61
2023/08/23 13:07:56;;;;;;;7.80;1.77;;;;;;;;;;6155396;23;20764;-61
2023/08/23 13:10:24;;;;;;;5.10;1.57;;;;;;;;;;6156010;23;20466;-61
2023/08/23 13:12:51;;;;;;;2.03;1.50;;;;;;;;;;6155788;23;20489;-61
2023/08/23 13:15:18;;;;;;;4.80;1.60;;;;;;;;;;6155810;23;20421;-61
2023/08/23 13:17:45;;;;;;;1.90;1.80;;;;;;;;;;6155933;23;20486;-61
2023/08/23 13:20:12;;;;;;;1.80;1.50;;;;;;;;;;6155883;23;20875;-61
2023/08/23 13:22:39;;;;;;;1.20;1.10;;;;;;;;;;6155711;23;20415;-61
2023/08/23 13:25:07;;;;;;;1.67;1.30;;;;;;;;;;6155823;23;20490;-61
2023/08/23 13:27:35;;;;;;;3.20;1.43;;;;;;;;;;6155416;23;20898;-61
2023/08/23 13:30:02;;;;;;;3.37;1.53;;;;;;;;;;6155602;23;20494;-61
2023/08/23 13:32:29;;;;;;;1.90;1.80;;;;;;;;;;6155768;23;20434;-61
2023/08/23 13:34:56;;;;;;;1.50;1.20;;;;;;;;;;6155664;23;20522;-61
2023/08/23 13:37:23;;;;;;;3.17;1.40;;;;;;;;;;6155841;23;20701;-61
2023/08/23 13:39:50;;;;;;;3.53;1.53;;;;;;;;;;6155633;23;20787;-61
2023/08/23 13:42:17;;;;;;;1.80;1.50;;;;;;;;;;6155745;23;20497;-61
2023/08/23 13:44:45;;;;;;;1.50;1.40;;;;;;;;;;6155700;23;20494;-61
2023/08/23 13:47:12;;;;;;;2.03;1.20;;;;;;;;;;6155744;23;20487;-61
2023/08/23 13:49:39;;;;;;;2.90;1.77;;;;;;;;;;6156801;23;20513;-61
2023/08/23 13:52:06;;;;;;;1.97;1.70;;;;;;;;;;6157523;23;20525;-61
2023/08/23 13:54:33;;;;;;;1.60;1.30;;;;;;;;;;6157571;23;20411;-61
2023/08/23 13:57:00;;;;;;;1.70;1.60;;;;;;;;;;6157643;23;20489;-61
2023/08/23 13:59:27;;;;;;;2.10;1.43;;;;;;;;;;6157661;23;20490;-61
2023/08/23 14:01:55;;;;;;;1.67;1.57;;;;;;;;;;6157659;23;20494;-61
2023/08/23 14:04:23;;;;;;;1.60;1.50;;;;;;;;;;6157881;23;20493;-60
2023/08/23 14:06:50;;;;;;;5.70;1.63;;;;;;;;;;6157566;23;20413;-61
2023/08/23 14:09:17;;;;;;;3.97;1.60;;;;;;;;;;6157545;23;20410;-61
2023/08/23 14:11:53;;;;;;;1.90;1.80;;;;;;;;;;6157396;23;20438;-61
2023/08/23 14:14:20;;;;;;;1.57;1.47;;;;;;;;;;6157250;23;20929;-61
2023/08/23 14:16:47;;;;;;;1.50;1.40;;;;;;;;;;6157596;23;20493;-61
2023/08/23 14:19:16;;;;;;;2.10;1.90;;;;;;;;;;6157488;23;20497;-61
2023/08/23 14:21:43;;;;;;;2.70;1.90;;;;;;;;;;6157618;23;20424;-60
2023/08/23 14:24:10;;;;;;;1.50;1.40;;;;;;;;;;6157353;23;20486;-61
2023/08/23 14:26:37;;;;;;;1.57;1.47;;;;;;;;;;6157369;23;20410;-61
2023/08/23 14:29:04;;;;;;;2.40;1.50;;;;;;;;;;6157499;23;20478;-61
2023/08/23 14:31:31;;;;;;;1.47;1.33;;;;;;;;;;6157326;23;20726;-61
2023/08/23 14:33:58;;;;;;;1.67;1.50;;;;;;;;;;6157336;23;20493;-61
2023/08/23 14:36:26;;;;;;;1.77;1.40;;;;;;;;;;6157442;23;20518;-61
2023/08/23 14:38:53;;;;;;;7.00;1.83;;;;;;;;;;6157476;23;20497;-61
2023/08/23 14:41:20;;;;;;;2.60;1.50;;;;;;;;;;6157316;23;20442;-61
2023/08/23 14:43:47;;;;;;;1.60;1.50;;;;;;;;;;6157235;23;20493;-61